Time;durP1;ratioP1;P1;durP2;ratioP2;P2;SDS_P1;SDS_P2;PMS_P1;PMS_P2;Temp;Humidity;BMP_temperature;BMP_pressure;BME280_temperature;BME280_humidity;BME280_pressure;Samples;Min_cycle;Max_cycle;Signal;HPM_P1;HPM_P2
2023/03/28 00:00:09;;;;;;;;;;;;;;;13.25;44.09;100735.72;4959361;28;117097;-67
2023/03/28 00:02:35;;;;;;;;;;;;;;;13.25;43.81;100738.44;4974239;28;107456;-67
2023/03/28 00:05:01;;;;;;;;;;;;;;;13.24;43.86;100742.22;4971922;28;127258;-65
2023/03/28 00:07:28;;;;;;;;;;;;;;;13.23;43.91;100733.28;4970183;28;98502;-64
2023/03/28 00:09:55;;;;;;;;;;;;;;;13.23;44.14;100737.88;4975777;28;98424;-65
2023/03/28 00:12:20;;;;;;;;;;;;;;;13.22;43.99;100736.25;4976513;28;98403;-65
2023/03/28 00:14:46;;;;;;;;;;;;;;;13.21;44.22;100723.81;4974035;28;127672;-65
2023/03/28 00:17:12;;;;;;;;;;;;;;;13.20;44.27;100725.72;4971850;28;128514;-67
2023/03/28 00:19:40;;;;;;;;;;;;;;;13.21;44.14;100726.50;4970657;28;114575;-65
2023/03/28 00:22:07;;;;;;;;;;;;;;;13.21;43.93;100729.22;4958451;28;98378;-67
2023/03/28 00:24:37;;;;;;;;;;;;;;;13.20;43.79;100804.19;4973140;28;98217;-65
2023/03/28 00:27:04;;;;;;;;;;;;;;;13.19;44.10;100820.69;4973297;28;98723;-67
2023/03/28 00:29:30;;;;;;;;;;;;;;;13.16;43.87;100808.53;4971907;27;97931;-67
2023/03/28 00:31:56;;;;;;;;;;;;;;;13.14;44.13;100802.59;4971410;28;99058;-65
2023/03/28 00:34:22;;;;;;;;;;;;;;;13.12;44.01;100804.75;4969451;28;127888;-64
2023/03/28 00:36:49;;;;;;;;;;;;;;;13.09;43.85;100797.19;4956950;28;126868;-65
2023/03/28 00:39:15;;;;;;;;;;;;;;;13.09;44.07;100802.63;4973079;28;99462;-64
2023/03/28 00:41:42;;;;;;;;;;;;;;;13.07;44.05;100801.25;4959420;28;128618;-67
2023/03/28 00:44:37;;;;;;;;;;;;;;;13.05;44.17;100809.66;4972954;28;104922;-68
2023/03/28 00:47:02;;;;;;;;;;;;;;;13.00;43.86;100807.75;4970955;28;98278;-67
2023/03/28 00:49:28;;;;;;;;;;;;;;;12.99;44.08;100797.22;4970773;28;115375;-64
2023/03/28 00:51:59;;;;;;;;;;;;;;;12.97;44.26;100802.13;4961292;28;99355;-67
2023/03/28 00:54:27;;;;;;;;;;;;;;;12.93;44.23;100790.19;4955219;28;98517;-67
2023/03/28 00:56:54;;;;;;;;;;;;;;;12.93;44.20;100795.59;4958844;28;98069;-64
2023/03/28 00:59:22;;;;;;;;;;;;;;;12.91;44.29;100795.09;4942009;28;115767;-67
2023/03/28 01:01:48;;;;;;;;;;;;;;;12.89;44.17;100784.53;4972850;28;98443;-64
2023/03/28 01:04:19;;;;;;;;;;;;;;;12.87;44.02;100788.59;4954381;28;127114;-67
2023/03/28 01:06:46;;;;;;;;;;;;;;;12.87;44.13;100796.72;4970050;28;98099;-64
2023/03/28 01:09:12;;;;;;;;;;;;;;;12.86;44.23;100792.41;4954395;28;98079;-64
2023/03/28 01:11:39;;;;;;;;;;;;;;;12.83;43.92;100796.44;4960139;28;109553;-67
2023/03/28 01:14:06;;;;;;;;;;;;;;;12.82;44.11;100808.38;4956754;28;98868;-64
2023/03/28 01:16:32;;;;;;;;;;;;;;;12.82;44.17;100804.84;4968680;28;97921;-64
2023/03/28 01:19:01;;;;;;;;;;;;;;;12.78;44.21;100797.28;4956840;28;109269;-64
2023/03/28 01:21:52;;;;;;;;;;;;;;;12.80;44.04;100804.31;4953163;28;99305;-64
2023/03/28 01:24:41;;;;;;;;;;;;;;;12.77;44.17;100806.47;4955868;28;99055;-66
2023/03/28 01:27:21;;;;;;;;;;;;;;;12.76;44.33;100821.06;4956956;28;98243;-67
2023/03/28 01:30:01;;;;;;;;;;;;;;;12.75;44.16;100822.16;4972637;27;97863;-66
2023/03/28 01:32:46;;;;;;;;;;;;;;;12.73;44.00;100823.50;4959539;28;99030;-67
2023/03/28 01:35:35;;;;;;;;;;;;;;;12.72;44.24;100825.41;4974071;28;103329;-64
2023/03/28 01:38:24;;;;;;;;;;;;;;;12.71;43.90;100821.09;4958054;28;100381;-64
2023/03/28 01:41:02;;;;;;;;;;;;;;;12.70;43.98;100826.78;4972836;28;98110;-67
2023/03/28 01:43:37;;;;;;;;;;;;;;;12.69;44.26;100827.84;4973901;28;98462;-64
2023/03/28 01:46:13;;;;;;;;;;;;;;;12.68;44.24;100834.34;4973971;28;98203;-67
2023/03/28 01:48:50;;;;;;;;;;;;;;;12.67;44.01;100830.84;4960208;28;126944;-67
2023/03/28 01:51:35;;;;;;;;;;;;;;;12.65;44.30;100848.41;4974328;28;99773;-64
2023/03/28 01:54:23;;;;;;;;;;;;;;;12.63;44.17;100837.88;4960273;28;128498;-64
2023/03/28 01:57:11;;;;;;;;;;;;;;;12.62;44.18;100838.97;4947335;28;127769;-68
2023/03/28 01:59:59;;;;;;;;;;;;;;;12.62;44.17;100840.84;4947145;28;103717;-64
2023/03/28 02:02:32;;;;;;;;;;;;;;;12.62;44.16;100846.25;4976871;28;98463;-64
2023/03/28 02:04:59;;;;;;;;;;;;;;;12.61;44.07;100844.63;4939768;28;98499;-64
2023/03/28 02:07:26;;;;;;;;;;;;;;;12.59;44.02;100842.19;4960076;28;100253;-64
2023/03/28 02:09:51;;;;;;;;;;;;;;;12.59;44.10;100844.91;4960048;28;98362;-64
2023/03/28 02:12:27;;;;;;;;;;;;;;;12.58;44.31;100848.69;4942491;28;117708;-67
2023/03/28 02:14:53;;;;;;;;;;;;;;;12.57;44.20;100844.34;4957977;28;98414;-67
2023/03/28 02:17:19;;;;;;;;;;;;;;;12.57;43.98;100846.25;4958603;28;128586;-64
2023/03/28 02:19:52;;;;;;;;;;;;;;;12.56;44.13;100852.75;4960863;28;98487;-67
2023/03/28 02:22:31;;;;;;;;;;;;;;;12.56;44.25;100855.44;4959112;28;98096;-68
2023/03/28 02:24:57;;;;;;;;;;;;;;;12.55;44.08;100849.22;4963011;28;99288;-64
2023/03/28 02:27:23;;;;;;;;;;;;;;;12.53;44.06;100841.38;4970979;28;98176;-67
2023/03/28 02:29:49;;;;;;;;;;;;;;;12.52;44.15;100853.28;4957156;28;126442;-64
2023/03/28 02:32:16;;;;;;;;;;;;;;;12.53;44.11;100848.69;4960798;28;98185;-64
2023/03/28 02:34:42;;;;;;;;;;;;;;;12.53;44.11;100849.47;4973481;28;99726;-64
2023/03/28 02:37:28;;;;;;;;;;;;;;;12.52;44.22;100853.28;4943456;28;116048;-67
2023/03/28 02:40:12;;;;;;;;;;;;;;;12.53;44.08;100859.50;4962188;28;98058;-67
2023/03/28 02:43:04;;;;;;;;;;;;;;;12.51;44.24;100848.16;4961916;28;99168;-64
2023/03/28 02:45:30;;;;;;;;;;;;;;;12.51;44.10;100859.78;4963084;28;98758;-68
2023/03/28 02:48:16;;;;;;;;;;;;;;;12.51;44.02;100862.47;4973331;28;99049;-64
2023/03/28 02:50:47;;;;;;;;;;;;;;;12.50;43.97;100868.97;4956354;28;100393;-64
2023/03/28 02:53:21;;;;;;;;;;;;;;;12.50;44.10;100863.56;4974938;28;97994;-64
2023/03/28 02:55:57;;;;;;;;;;;;;;;12.51;44.18;100867.88;4971572;28;98309;-68
2023/03/28 02:58:26;;;;;;;;;;;;;;;12.51;44.04;100864.38;4940727;28;98501;-64
2023/03/28 03:00:52;;;;;;;;;;;;;;;12.51;44.23;100864.38;4958181;28;98384;-64
2023/03/28 03:03:18;;;;;;;;;;;;;;;12.50;44.00;100870.88;4974546;28;100020;-67
2023/03/28 03:05:44;;;;;;;;;;;;;;;12.49;44.22;100861.94;4974716;28;128102;-63
2023/03/28 03:08:10;;;;;;;;;;;;;;;12.49;44.10;100861.13;4972319;28;129108;-67
2023/03/28 03:10:36;;;;;;;;;;;;;;;12.48;44.13;100864.91;4976439;28;98282;-63
2023/03/28 03:13:02;;;;;;;;;;;;;;;12.49;44.05;100874.63;4977100;28;118492;-63
2023/03/28 03:15:29;;;;;;;;;;;;;;;12.47;44.14;100872.22;4974065;28;110220;-67
2023/03/28 03:17:57;;;;;;;;;;;;;;;12.47;43.98;100877.63;4976629;27;98321;-67
2023/03/28 03:20:25;;;;;;;;;;;;;;;12.47;44.03;100876.81;4974012;28;98580;-63
2023/03/28 03:22:51;;;;;;;;;;;;;;;12.48;44.06;100875.72;4973973;28;97908;-63
2023/03/28 03:25:17;;;;;;;;;;;;;;;12.45;44.17;100879.78;4976340;28;120799;-67
2023/03/28 03:27:43;;;;;;;;;;;;;;;12.46;43.99;100889.53;4972970;27;128626;-63
2023/03/28 03:30:10;;;;;;;;;;;;;;;12.45;44.09;100890.59;4972715;28;127395;-62
2023/03/28 03:32:38;;;;;;;;;;;;;;;12.44;44.01;100886.25;4973944;28;97987;-63
2023/03/28 03:35:04;;;;;;;;;;;;;;;12.44;44.14;100891.69;4970159;28;98018;-63
2023/03/28 03:37:30;;;;;;;;;;;;;;;12.44;44.30;100901.69;4971759;28;120795;-62
2023/03/28 03:39:56;;;;;;;;;;;;;;;12.43;44.14;100898.16;4972468;28;127759;-66
2023/03/28 03:42:22;;;;;;;;;;;;;;;12.44;44.25;100907.09;4973610;28;116847;-66
2023/03/28 03:44:48;;;;;;;;;;;;;;;12.44;44.17;100915.19;4971298;28;127737;-62
2023/03/28 03:47:16;;;;;;;;;;;;;;;12.43;44.09;100916.28;4971882;28;127949;-66
2023/03/28 03:49:42;;;;;;;;;;;;;;;12.42;43.95;100915.47;4975030;28;98289;-62
2023/03/28 03:52:08;;;;;;;;;;;;;;;12.42;44.00;100928.19;4971804;28;117523;-66
2023/03/28 03:54:34;;;;;;;;;;;;;;;12.43;44.12;100921.69;4970827;28;127939;-62
2023/03/28 03:57:01;;;;;;;;;;;;;;;12.41;44.12;100921.94;4973127;28;98265;-62
2023/03/28 03:59:27;;;;;;;;;;;;;;;12.41;44.03;100923.84;4973606;28;98182;-62
2023/03/28 04:01:54;;;;;;;;;;;;;;;12.41;44.08;100935.47;4973784;28;99405;-63
2023/03/28 04:04:20;;;;;;;;;;;;;;;12.40;44.21;100927.63;4971963;28;99227;-64
2023/03/28 04:06:46;;;;;;;;;;;;;;;12.39;44.09;100936.81;4970673;28;125857;-66
2023/03/28 04:09:12;;;;;;;;;;;;;;;12.37;44.34;100930.88;4971315;28;112176;-63
2023/03/28 04:11:38;;;;;;;;;;;;;;;12.37;44.06;100949.78;4970957;28;117024;-61
2023/03/28 04:14:04;;;;;;;;;;;;;;;12.35;44.14;100946.56;4969554;28;99038;-61
2023/03/28 04:16:33;;;;;;;;;;;;;;;12.34;44.07;100953.84;4968613;27;128177;-65
2023/03/28 04:18:59;;;;;;;;;;;;;;;12.32;44.05;100950.59;4971127;28;98314;-65
2023/03/28 04:21:29;;;;;;;;;;;;;;;12.32;44.03;100957.91;4973451;28;115297;-66
2023/03/28 04:23:55;;;;;;;;;;;;;;;12.32;44.01;100966.81;4960138;28;118286;-65
2023/03/28 04:26:24;;;;;;;;;;;;;;;12.29;44.27;100968.16;4972706;28;128881;-61
2023/03/28 04:28:54;;;;;;;;;;;;;;;12.30;44.03;100977.09;4973122;27;98467;-61
2023/03/28 04:31:20;;;;;;;;;;;;;;;12.28;44.32;100979.22;4973368;28;97848;-61
2023/03/28 04:33:47;;;;;;;;;;;;;;;12.28;44.10;100981.94;4973933;28;98903;-65
2023/03/28 04:36:15;;;;;;;;;;;;;;;12.25;44.17;100998.69;4960290;28;109161;-65
2023/03/28 04:38:44;;;;;;;;;;;;;;;12.25;44.25;101009.50;4970288;28;98241;-65
2023/03/28 04:41:11;;;;;;;;;;;;;;;12.23;44.14;101014.38;4968776;28;97872;-65
2023/03/28 04:43:37;;;;;;;;;;;;;;;12.22;44.15;101012.72;4968161;28;98262;-61
2023/03/28 04:46:03;;;;;;;;;;;;;;;12.21;44.13;101019.22;4969735;28;128272;-62
2023/03/28 04:48:30;;;;;;;;;;;;;;;12.19;44.04;101018.69;4967459;28;126894;-65
2023/03/28 04:50:55;;;;;;;;;;;;;;;12.18;44.14;101023.28;4966823;28;98154;-61
2023/03/28 04:53:21;;;;;;;;;;;;;;;12.18;44.09;101025.13;4966040;28;127549;-61
2023/03/28 04:55:51;;;;;;;;;;;;;;;12.18;44.27;101031.38;4971590;28;128330;-61
2023/03/28 04:58:17;;;;;;;;;;;;;;;12.18;44.25;101044.06;4971249;28;98808;-62
2023/03/28 05:00:44;;;;;;;;;;;;;;;12.18;44.11;101053.00;4971562;28;113318;-66
2023/03/28 05:03:17;;;;;;;;;;;;;;;12.19;44.15;101051.09;4971407;28;99090;-66
2023/03/28 05:05:43;;;;;;;;;;;;;;;12.18;43.91;101058.41;4976510;28;98287;-62
2023/03/28 05:08:09;;;;;;;;;;;;;;;12.19;44.18;101059.22;4979010;28;109743;-66
2023/03/28 05:10:35;;;;;;;;;;;;;;;12.18;44.12;101062.97;4978012;28;97809;-66
2023/03/28 05:13:01;;;;;;;;;;;;;;;12.19;43.98;101087.06;4973902;28;128028;-61
2023/03/28 05:15:27;;;;;;;;;;;;;;;12.21;44.14;101078.66;4972989;28;99129;-62
2023/03/28 05:17:53;;;;;;;;;;;;;;;12.22;44.06;101089.22;4974166;28;126016;-67
2023/03/28 05:20:19;;;;;;;;;;;;;;;12.22;44.01;101089.22;4974834;28;102403;-62
2023/03/28 05:22:46;;;;;;;;;;;;;;;12.24;43.97;101097.88;4976585;28;98169;-66
2023/03/28 05:25:12;;;;;;;;;;;;;;;12.30;43.68;101090.63;4943254;28;98242;-62
2023/03/28 05:27:38;;;;;;;;;;;;;;;12.32;43.93;101103.88;4975802;28;126768;-66
2023/03/28 05:30:08;;;;;;;;;;;;;;;12.37;44.00;101103.88;4976069;28;98076;-66
2023/03/28 05:32:34;;;;;;;;;;;;;;;12.44;43.67;101099.03;4976492;28;98399;-62
2023/03/28 05:35:00;;;;;;;;;;;;;;;12.52;43.72;101107.47;4972556;28;115547;-62
2023/03/28 05:37:26;;;;;;;;;;;;;;;12.68;43.66;101121.03;4976576;28;126449;-62
2023/03/28 05:39:52;;;;;;;;;;;;;;;12.82;43.54;101116.78;4976896;28;97958;-66
2023/03/28 05:42:18;;;;;;;;;;;;;;;12.94;43.22;101127.34;4975241;28;127074;-66
2023/03/28 05:44:44;;;;;;;;;;;;;;;12.97;43.36;101132.22;4976290;28;128403;-62
2023/03/28 05:47:10;;;;;;;;;;;;;;;13.05;43.54;101139.00;4976176;28;98811;-66
2023/03/28 05:49:36;;;;;;;;;;;;;;;13.16;43.23;101133.31;4970141;28;117239;-61
2023/03/28 05:52:02;;;;;;;;;;;;;;;13.41;42.85;101138.00;4975614;28;99399;-66
2023/03/28 05:54:28;;;;;;;;;;;;;;;13.50;43.15;101144.50;4971734;28;128792;-62
2023/03/28 05:56:54;;;;;;;;;;;;;;;13.47;43.47;101149.66;4971900;28;127561;-66
2023/03/28 05:59:23;;;;;;;;;;;;;;;13.46;43.43;101148.03;4973665;28;117359;-62
2023/03/28 06:01:54;;;;;;;;;;;;;;;13.50;43.58;101152.63;4974356;28;99300;-66
2023/03/28 06:04:20;;;;;;;;;;;;;;;13.51;43.55;101158.84;4973477;28;99009;-61
2023/03/28 06:06:47;;;;;;;;;;;;;;;13.45;43.33;101159.94;4973718;28;98058;-66
2023/03/28 06:09:14;;;;;;;;;;;;;;;13.41;43.38;101173.22;4973583;28;98115;-66
2023/03/28 06:11:40;;;;;;;;;;;;;;;13.38;43.78;101175.66;4974285;28;99020;-66
2023/03/28 06:14:06;;;;;;;;;;;;;;;13.34;43.87;101177.25;4971819;27;125318;-62
2023/03/28 06:16:32;;;;;;;;;;;;;;;13.31;43.67;101177.78;4973382;28;127599;-62
2023/03/28 06:18:58;;;;;;;;;;;;;;;13.26;43.50;101182.13;4969634;28;116973;-66
2023/03/28 06:21:24;;;;;;;;;;;;;;;13.27;43.90;101178.31;4973962;28;98327;-66
2023/03/28 06:23:50;;;;;;;;;;;;;;;13.26;43.52;101187.53;4971956;28;128411;-66
2023/03/28 06:26:17;;;;;;;;;;;;;;;13.30;43.75;101187.00;4975530;28;97817;-68
2023/03/28 06:28:43;;;;;;;;;;;;;;;13.39;43.43;101190.81;4975010;27;109111;-66
2023/03/28 06:31:12;;;;;;;;;;;;;;;13.54;43.52;101185.41;4974654;28;127114;-62
2023/03/28 06:33:40;;;;;;;;;;;;;;;13.62;43.40;101197.59;4975783;27;98912;-63
2023/03/28 06:36:07;;;;;;;;;;;;;;;13.69;43.37;101200.88;4973433;28;99477;-63
2023/03/28 06:38:33;;;;;;;;;;;;;;;13.77;43.13;101205.75;4973721;28;116935;-62
2023/03/28 06:40:59;;;;;;;;;;;;;;;13.65;43.63;101199.78;4970726;28;98202;-62
2023/03/28 06:43:25;;;;;;;;;;;;;;;13.64;43.68;101222.53;4974169;28;98781;-63
2023/03/28 06:45:51;;;;;;;;;;;;;;;13.59;43.69;101223.31;4973308;28;127586;-66
2023/03/28 06:48:17;;;;;;;;;;;;;;;13.59;43.56;101227.94;4974538;28;99930;-62
2023/03/28 06:50:49;;;;;;;;;;;;;;;13.62;43.77;101227.41;4973166;28;128039;-66
2023/03/28 06:53:18;;;;;;;;;;;;;;;13.92;42.98;101224.72;4957093;28;99130;-62
2023/03/28 06:55:44;;;;;;;;;;;;;;;14.03;43.34;101233.66;4973732;28;125102;-62
2023/03/28 06:58:10;;;;;;;;;;;;;;;14.10;43.24;101234.19;4973129;28;114605;-66
2023/03/28 07:00:36;;;;;;;;;;;;;;;14.11;43.28;101235.81;4975743;28;98827;-62
2023/03/28 07:03:01;;;;;;;;;;;;;;;14.15;43.12;101242.34;4972396;28;127549;-63
2023/03/28 07:05:27;;;;;;;;;;;;;;;14.20;43.10;101245.03;4973518;28;126194;-65
2023/03/28 07:07:54;;;;;;;;;;;;;;;14.27;42.92;101252.09;4971771;28;115877;-63
2023/03/28 07:10:20;;;;;;;;;;;;;;;14.41;43.25;101248.53;4971732;28;125250;-66
2023/03/28 07:12:45;;;;;;;;;;;;;;;14.42;43.11;101255.59;4970704;27;119700;-66
2023/03/28 07:15:11;;;;;;;;;;;;;;;14.53;43.24;101250.16;4971927;28;127543;-63
2023/03/28 07:17:37;;;;;;;;;;;;;;;14.56;43.04;101263.19;4973973;28;104379;-66
2023/03/28 07:20:03;;;;;;;;;;;;;;;14.66;43.09;101271.31;4944092;28;129435;-63
2023/03/28 07:22:30;;;;;;;;;;;;;;;14.64;43.08;101268.03;4957635;28;123394;-66
2023/03/28 07:24:56;;;;;;;;;;;;;;;14.76;43.02;101275.88;4969606;28;98528;-66
2023/03/28 07:27:21;;;;;;;;;;;;;;;14.91;42.83;101283.97;4966622;28;116684;-63
2023/03/28 07:29:47;;;;;;;;;;;;;;;15.04;42.84;101285.28;4970792;28;126093;-63
2023/03/28 07:32:14;;;;;;;;;;;;;;;15.02;42.70;101285.59;4972510;28;127215;-63
2023/03/28 07:34:40;;;;;;;;;;;;;;;15.11;42.89;101286.63;4973063;28;98314;-67
2023/03/28 07:37:06;;;;;;;;;;;;;;;15.45;42.40;101292.19;4973954;28;97822;-63
2023/03/28 07:39:33;;;;;;;;;;;;;;;15.72;42.09;101293.69;4958283;28;117083;-63
2023/03/28 07:41:59;;;;;;;;;;;;;;;16.01;42.03;101295.66;4972102;28;98616;-67
2023/03/28 07:44:25;;;;;;;;;;;;;;;16.29;41.81;101294.88;4972849;28;100171;-67
2023/03/28 07:46:53;;;;;;;;;;;;;;;16.47;41.78;101290.63;4974603;28;115329;-67
2023/03/28 07:49:19;;;;;;;;;;;;;;;16.79;41.49;101294.69;4955520;28;98712;-63
2023/03/28 07:51:46;;;;;;;;;;;;;;;17.07;41.25;101298.47;4970858;28;99021;-63
2023/03/28 07:54:16;;;;;;;;;;;;;;;17.42;41.17;101291.75;4972432;28;98649;-67
2023/03/28 07:56:45;;;;;;;;;;;;;;;17.83;40.75;101296.63;4971935;28;97965;-68
2023/03/28 07:59:14;;;;;;;;;;;;;;;18.24;40.49;101302.28;4969545;28;98963;-68
2023/03/28 08:01:40;;;;;;;;;;;;;;;18.71;40.35;101299.56;4972333;28;98373;-64
2023/03/28 08:04:07;;;;;;;;;;;;;;;19.25;39.91;101306.13;4971436;28;98066;-67
2023/03/28 08:06:36;;;;;;;;;;;;;;;19.88;39.50;101309.97;4971912;28;98013;-64
2023/03/28 08:09:03;;;;;;;;;;;;;;;19.85;39.90;101308.66;4969201;27;99490;-64
2023/03/28 08:11:29;;;;;;;;;;;;;;;20.57;39.51;101315.94;4958154;28;124696;-67
2023/03/28 08:13:55;;;;;;;;;;;;;;;21.38;38.69;101321.09;4970946;28;127411;-67
2023/03/28 08:16:21;;;;;;;;;;;;;;;21.93;38.52;101319.66;4967467;28;116756;-67
2023/03/28 08:18:47;;;;;;;;;;;;;;;22.42;38.71;101323.03;4972112;28;128193;-65
2023/03/28 08:21:13;;;;;;;;;;;;;;;22.93;38.56;101321.28;4969884;28;126934;-65
2023/03/28 08:23:39;;;;;;;;;;;;;;;23.36;38.56;101329.31;4970936;28;127309;-68
2023/03/28 08:26:06;;;;;;;;;;;;;;;23.97;38.12;101337.13;4976491;28;98289;-68
2023/03/28 08:28:32;;;;;;;;;;;;;;;24.48;38.27;101338.63;4972986;28;98390;-65
2023/03/28 08:30:58;;;;;;;;;;;;;;;25.05;37.96;101338.94;4954229;28;99044;-65
2023/03/28 08:33:25;;;;;;;;;;;;;;;25.70;37.84;101339.78;4970939;28;110935;-66
2023/03/28 08:35:52;;;;;;;;;;;;;;;26.33;37.57;101341.97;4971139;28;98190;-66
2023/03/28 08:38:18;;;;;;;;;;;;;;;27.02;37.39;101343.41;4973973;27;98480;-66
2023/03/28 08:41:08;;;;;;;;;;;;;;;26.73;38.13;101360.47;4977438;28;98732;-69
2023/03/28 08:43:52;;;;;;;;;;;;;;;25.52;39.73;101349.50;4947623;28;99386;-66
2023/03/28 08:46:18;;;;;;;;;;;;;;;25.81;39.38;101351.19;4977449;28;98318;-66
2023/03/28 08:48:44;;;;;;;;;;;;;;;26.39;38.87;101351.63;4961772;28;124332;-69
2023/03/28 08:51:31;;;;;;;;;;;;;;;26.56;38.72;101359.63;4945846;28;119812;-69
2023/03/28 08:54:15;;;;;;;;;;;;;;;26.16;39.49;101365.19;4960766;28;98641;-68
2023/03/28 08:56:48;;;;;;;;;;;;;;;25.45;40.40;101356.38;4973383;28;97922;-68
2023/03/28 08:59:15;;;;;;;;;;;;;;;26.82;38.84;101350.03;4961762;28;99047;-66
2023/03/28 09:01:42;;;;;;;;;;;;;;;26.62;39.28;101344.38;4960170;28;98150;-66
2023/03/28 09:04:12;;;;;;;;;;;;;;;26.79;39.36;101354.28;4945891;28;123530;-66
2023/03/28 09:06:40;;;;;;;;;;;;;;;27.34;39.10;101357.22;4955806;28;99638;-66
2023/03/28 09:09:33;;;;;;;;;;;;;;;28.12;38.60;101358.13;4953115;28;98411;-66
2023/03/28 09:12:27;;;;;;;;;;;;;;;29.67;37.21;101362.38;4946556;28;98371;-67
2023/03/28 09:15:10;;;;;;;;;;;;;;;30.85;36.91;101375.66;4976778;28;98061;-67
2023/03/28 09:17:45;;;;;;;;;;;;;;;31.99;36.30;101370.03;4959382;28;108429;-68
2023/03/28 09:20:32;;;;;;;;;;;;;;;32.62;36.36;101374.22;4960238;28;128957;-69
2023/03/28 09:23:11;;;;;;;;;;;;;;;32.53;37.33;101373.81;4945789;28;99231;-67
2023/03/28 09:25:47;;;;;;;;;;;;;;;32.91;36.97;101369.44;4975325;28;101839;-67
2023/03/28 09:28:48;;;;;;;;;;;;;;;33.73;36.72;101390.91;4963850;28;100072;-67
2023/03/28 09:31:15;;;;;;;;;;;;;;;32.54;38.33;101371.81;4961735;28;98115;-67
2023/03/28 09:33:42;;;;;;;;;;;;;;;33.65;36.95;101367.78;4970975;28;98343;-67
2023/03/28 09:36:11;;;;;;;;;;;;;;;32.47;38.46;101361.44;4961925;28;98171;-68
2023/03/28 09:38:38;;;;;;;;;;;;;;;34.14;36.87;101371.56;4956031;28;113385;-68
2023/03/28 09:41:11;;;;;;;;;;;;;;;35.25;35.96;101381.19;4960209;28;100694;-68
2023/03/28 09:43:52;;;;;;;;;;;;;;;36.22;35.65;101367.63;4947801;28;98607;-70
2023/03/28 09:46:47;;;;;;;;;;;;;;;37.27;34.88;101368.38;4963705;28;122254;-69
2023/03/28 09:49:18;;;;;;;;;;;;;;;38.98;33.99;101380.69;4973658;27;98066;-70
2023/03/28 09:51:44;;;;;;;;;;;;;;;40.33;33.07;101392.22;4946980;28;98665;-69
2023/03/28 09:54:10;;;;;;;;;;;;;;;40.93;32.89;101385.84;4977195;28;121628;-70
2023/03/28 09:56:37;;;;;;;;;;;;;;;39.34;35.13;101382.63;4943761;28;120926;-68
2023/03/28 09:59:04;;;;;;;;;;;;;;;41.16;33.73;101385.44;4942256;28;98079;-70
2023/03/28 10:01:37;;;;;;;;;;;;;;;41.89;33.17;101392.91;4972417;28;98322;-70
2023/03/28 10:04:10;;;;;;;;;;;;;;;40.12;35.14;101382.38;4961656;28;126912;-69
2023/03/28 10:06:36;;;;;;;;;;;;;;;41.24;33.94;101376.72;4960349;28;98174;-68
2023/03/28 10:09:13;;;;;;;;;;;;;;;41.77;33.81;101377.56;4973767;28;98467;-68
2023/03/28 10:12:04;;;;;;;;;;;;;;;40.80;35.26;101370.97;4961817;28;109909;-70
2023/03/28 10:14:34;;;;;;;;;;;;;;;40.14;35.94;101377.09;4973058;28;98721;-70
2023/03/28 10:17:05;;;;;;;;;;;;;;;38.82;37.30;101363.03;4972619;28;98113;-68
2023/03/28 10:19:36;;;;;;;;;;;;;;;39.18;36.82;101377.75;4963126;28;97989;-69
2023/03/28 10:22:07;;;;;;;;;;;;;;;37.93;37.60;101361.06;4960310;28;125404;-68
2023/03/28 10:24:33;;;;;;;;;;;;;;;36.72;38.19;101372.53;4973942;28;109899;-69
2023/03/28 10:27:06;;;;;;;;;;;;;;;35.67;39.30;101379.94;4973765;28;98647;-67
2023/03/28 10:29:32;;;;;;;;;;;;;;;35.77;38.53;101365.03;4960695;28;98820;-67
2023/03/28 10:31:58;;;;;;;;;;;;;;;37.79;36.51;101381.81;4961483;28;98146;-67
2023/03/28 10:34:28;;;;;;;;;;;;;;;39.61;34.63;101382.22;4975216;28;98547;-70
2023/03/28 10:36:54;;;;;;;;;;;;;;;41.14;33.66;101376.63;4974363;28;125297;-69
2023/03/28 10:39:25;;;;;;;;;;;;;;;41.23;33.72;101381.59;4960506;28;116763;-69
2023/03/28 10:41:58;;;;;;;;;;;;;;;40.35;34.76;101375.59;4962102;28;99602;-70
2023/03/28 10:44:39;;;;;;;;;;;;;;;40.07;35.55;101376.50;4975088;28;98330;-69
2023/03/28 10:47:09;;;;;;;;;;;;;;;38.30;37.12;101367.47;4972555;28;97963;-67
2023/03/28 10:49:44;;;;;;;;;;;;;;;40.80;34.26;101379.44;4973748;28;98064;-68
2023/03/28 10:52:22;;;;;;;;;;;;;;;40.90;34.81;101373.41;4947569;28;98685;-68
2023/03/28 10:55:28;;;;;;;;;;;;;;;38.46;36.72;101381.56;4944590;28;126898;-68
2023/03/28 10:58:29;;;;;;;;;;;;;;;40.25;35.06;101390.88;4917244;28;124350;-69
2023/03/28 11:01:00;;;;;;;;;;;;;;;41.44;34.00;101382.88;4918922;28;98321;-69
2023/03/28 11:03:35;;;;;;;;;;;;;;;41.80;33.89;101390.00;4955935;28;99313;-69
2023/03/28 11:06:29;;;;;;;;;;;;;;;41.63;34.13;101384.56;4960612;28;119593;-68
2023/03/28 11:09:20;;;;;;;;;;;;;;;41.99;33.60;101379.63;4973370;28;98075;-69
2023/03/28 11:12:25;;;;;;;;;;;;;;;41.22;34.99;101385.63;4919695;28;98198;-69
2023/03/28 11:15:10;;;;;;;;;;;;;;;39.68;36.52;101364.34;4921856;28;99207;-69
2023/03/28 11:17:58;;;;;;;;;;;;;;;39.17;36.71;101379.00;4958153;28;98700;-68
2023/03/28 11:20:41;;;;;;;;;;;;;;;38.12;37.74;101367.06;4963288;28;97973;-67
2023/03/28 11:23:34;;;;;;;;;;;;;;;37.46;37.82;101375.25;4958466;28;113735;-69
2023/03/28 11:26:15;;;;;;;;;;;;;;;39.45;35.27;101383.09;4973301;28;99039;-69
2023/03/28 11:29:03;;;;;;;;;;;;;;;40.65;34.20;101382.72;4941974;28;98952;-69
2023/03/28 11:31:36;;;;;;;;;;;;;;;40.04;35.02;101392.28;4973851;28;98107;-67
2023/03/28 11:34:15;;;;;;;;;;;;;;;40.17;34.89;101386.69;4957175;28;98516;-68
2023/03/28 11:36:50;;;;;;;;;;;;;;;39.51;35.67;101372.84;4959713;28;98346;-69
2023/03/28 11:39:27;;;;;;;;;;;;;;;39.56;35.70;101374.34;4957073;28;123030;-68
2023/03/28 11:41:53;;;;;;;;;;;;;;;39.70;35.60;101373.97;4951069;28;127115;-69
2023/03/28 11:44:20;;;;;;;;;;;;;;;38.83;36.51;101370.25;4957345;28;115607;-69
2023/03/28 11:46:51;;;;;;;;;;;;;;;38.24;37.00;101374.81;4975068;28;98439;-69
2023/03/28 11:49:37;;;;;;;;;;;;;;;38.95;36.13;101375.19;4962930;28;128878;-69
2023/03/28 11:52:16;;;;;;;;;;;;;;;38.62;36.19;101375.16;4954464;28;124024;-69
2023/03/28 11:54:49;;;;;;;;;;;;;;;38.97;35.68;101372.72;4953334;28;112330;-69
2023/03/28 11:57:22;;;;;;;;;;;;;;;39.24;35.71;101376.03;4955236;28;98218;-69
2023/03/28 11:59:58;;;;;;;;;;;;;;;39.50;35.52;101365.66;4942943;28;99953;-67
2023/03/28 12:02:30;;;;;;;;;;;;;;;39.75;35.31;101367.75;4962123;28;98119;-68
2023/03/28 12:05:03;;;;;;;;;;;;;;;39.82;35.36;101352.66;4972115;27;98087;-69
2023/03/28 12:07:37;;;;;;;;;;;;;;;40.04;35.04;101363.28;4940771;28;99235;-68
2023/03/28 12:10:20;;;;;;;;;;;;;;;40.20;35.16;101361.16;4972322;28;98192;-68
2023/03/28 12:12:58;;;;;;;;;;;;;;;40.38;35.25;101366.25;4970120;28;98545;-69
2023/03/28 12:15:58;;;;;;;;;;;;;;;40.53;34.99;101360.13;4971347;28;98134;-69
2023/03/28 12:18:44;;;;;;;;;;;;;;;40.58;35.17;101362.41;4963053;28;98893;-67
2023/03/28 12:21:21;;;;;;;;;;;;;;;40.53;35.39;101348.84;4958588;28;99076;-68
2023/03/28 12:24:16;;;;;;;;;;;;;;;40.62;34.86;101363.88;4945603;28;100131;-68
2023/03/28 12:27:09;;;;;;;;;;;;;;;40.63;35.19;101368.25;4974252;28;97972;-69
2023/03/28 12:29:49;;;;;;;;;;;;;;;40.28;35.37;101358.13;4972123;27;99120;-68
2023/03/28 12:32:37;;;;;;;;;;;;;;;39.45;36.04;101366.16;4955287;28;125970;-69
2023/03/28 12:35:04;;;;;;;;;;;;;;;39.40;36.05;101365.94;4958434;28;98376;-69
2023/03/28 12:38:01;;;;;;;;;;;;;;;38.24;36.95;101364.38;4971906;28;97891;-67
2023/03/28 12:40:58;;;;;;;;;;;;;;;36.96;38.16;101347.28;4904218;28;99487;-69
2023/03/28 12:43:50;;;;;;;;;;;;;;;36.67;37.80;101341.31;4960367;28;98649;-68
2023/03/28 12:46:44;;;;;;;;;;;;;;;35.66;39.02;101358.75;4971688;28;98265;-67
2023/03/28 12:49:18;;;;;;;;;;;;;;;35.59;38.43;101353.22;4952238;28;98087;-68
2023/03/28 12:51:49;;;;;;;;;;;;;;;35.54;38.17;101354.47;4959432;28;98743;-66
2023/03/28 12:54:15;;;;;;;;;;;;;;;35.18;38.07;101348.44;4957349;28;99030;-68